Hiawatha, WV

10:50 AM EST on December 03, 2016 (GMT -0500)
Princeton | | Change Station

Elev 2467 ft 37.37 °N, 81.09 °W | Updated 35 seconds ago

Overcast
Overcast
36.0 °F
Feels Like 33 °F
N
4.2
Wind Variable Wind from SW

Today
High -- | Low -- °F
--% Chance of Precip.
Yesterday
High -- | Low -- °F
Precip. -- in
Pressure 30.34 in
Visibility 10.0 miles
Clouds Overcast 1800 ft
Windchill 33 °F
Dew Point 26 °F
Humidity 68%
Rainfall 0.00 in
Snow Depth Not available.
7:23 AM 5:06 PM
Waxing Crescent, 15% visible
METAR KBLF 031452Z AUTO 33004KT 10SM OVC018 M01/M06 A3028 RMK AO2 SLP273 T10111056 53012
Pressure 30.34 in
Visibility 10.0 miles
Clouds Overcast 1800 ft
Windchill 33 °F
Dew Point 26 °F
Humidity 68%
Rainfall 0.00 in
Snow Depth Not available.
7:23 AM 5:06 PM
Waxing Crescent, 15% visible
METAR KBLF 031452Z AUTO 33004KT 10SM OVC018 M01/M06 A3028 RMK AO2 SLP273 T10111056 53012

10-Day Weather Forecast

Almanac

Astronomy

Dec. 03, 2016 Rise Set
Actual Time
Civil Twilight
Nautical Twilight
Astronomical Twilight
Moon
Length of Visible Light
Length of Day
Tomorrow will be .
, % of the Moon is Illuminated

Today's Extremes

State Highs State Lows

Community

WunderPhotos

Upload Photos

1,955,427 photos uploaded!

WunderBlog® & News

Nearby

Air Quality

  Air Quality AQ Index Pollutant
Not available.

Snow Depth

Station Depth Elevation

Earthquake Activity

City Distance Mag. Time & Date
Minimum magnitude displayed is 2.5.

Coastal Water Temperatures

Place Temperature

Stations

Nearby Weather Stations

Station Location Temp. Windchill Dew Point Humidity Wind Precip. Elev Updated Type
                   

Watches & Warnings

There are currently no watches in effect.